createdAt,value
2017-06-04T00:00:52.410Z,100775.65
2017-06-04T00:03:19.998Z,100776.43
2017-06-04T00:05:47.520Z,100769.34
2017-06-04T00:08:15.196Z,100781.83
2017-06-04T00:10:42.723Z,100779.92
2017-06-04T00:13:10.270Z,100784.27
2017-06-04T00:15:37.843Z,100773.47
2017-06-04T00:18:05.367Z,100783.80
2017-06-04T00:20:32.935Z,100784.68
2017-06-04T00:23:00.467Z,100783.23
2017-06-04T00:25:28.278Z,100785.58
2017-06-04T00:27:55.839Z,100793.30
2017-06-04T00:30:23.363Z,100793.41
2017-06-04T00:32:50.939Z,100798.63
2017-06-04T00:35:18.483Z,100800.98
2017-06-04T00:37:46.059Z,100798.58
2017-06-04T00:40:13.575Z,100806.55
2017-06-04T00:42:41.144Z,100810.51
2017-06-04T00:45:08.686Z,100807.36
2017-06-04T00:47:36.222Z,100813.92
2017-06-04T00:50:03.778Z,100815.19
2017-06-04T00:52:31.304Z,100811.50
2017-06-04T00:54:58.872Z,100817.28
2017-06-04T00:57:26.416Z,100815.93
2017-06-04T00:59:54.040Z,100821.09
2017-06-04T01:02:21.651Z,100822.59
2017-06-04T01:04:49.172Z,100814.88
2017-06-04T01:07:16.740Z,100817.98
2017-06-04T01:09:44.284Z,100817.91
2017-06-04T01:12:11.867Z,100819.73
2017-06-04T01:14:39.407Z,100816.87
2017-06-04T01:17:06.928Z,100819.23
2017-06-04T01:19:34.489Z,100814.20
2017-06-04T01:22:02.002Z,100819.03
2017-06-04T01:24:29.544Z,100814.82
2017-06-04T01:26:57.183Z,100820.44
2017-06-04T01:29:24.779Z,100814.98
2017-06-04T01:31:52.296Z,100816.23
2017-06-04T01:34:19.855Z,100818.34
2017-06-04T01:36:47.372Z,100821.28
2017-06-04T01:39:14.933Z,100820.68
2017-06-04T01:41:42.452Z,100825.81
2017-06-04T01:44:09.995Z,100814.23
2017-06-04T01:46:37.520Z,100812.78
2017-06-04T01:49:05.081Z,100809.86
2017-06-04T01:51:32.594Z,100805.45
2017-06-04T01:54:00.144Z,100802.48
2017-06-04T01:56:27.663Z,100805.84
2017-06-04T01:58:55.244Z,100802.41
2017-06-04T02:01:22.776Z,100811.16
2017-06-04T02:03:50.300Z,100803.05
2017-06-04T02:06:17.871Z,100801.94
2017-06-04T02:08:45.494Z,100805.80
2017-06-04T02:11:13.053Z,100798.73
2017-06-04T02:13:40.583Z,100812.30
2017-06-04T02:16:08.130Z,100813.07
2017-06-04T02:18:35.647Z,100814.97
2017-06-04T02:21:03.207Z,100810.67
2017-06-04T02:23:30.733Z,100818.77
2017-06-04T02:25:58.285Z,100811.94
2017-06-04T02:28:25.821Z,100810.24
2017-06-04T02:30:53.489Z,100798.11
2017-06-04T02:33:21.005Z,100798.67
2017-06-04T02:35:48.545Z,100803.05
2017-06-04T02:38:16.071Z,100807.16
2017-06-04T02:40:43.626Z,100806.91
2017-06-04T02:43:11.163Z,100805.80
2017-06-04T02:45:38.768Z,100803.23
2017-06-04T02:48:06.282Z,100803.48
2017-06-04T02:50:33.849Z,100807.77
2017-06-04T02:53:01.380Z,100814.41
2017-06-04T02:55:28.944Z,100813.31
2017-06-04T02:57:56.478Z,100817.92
2017-06-04T03:00:24.023Z,100821.18
2017-06-04T03:02:51.649Z,100817.94
2017-06-04T03:05:19.229Z,100825.42
2017-06-04T03:07:46.761Z,100823.75
2017-06-04T03:10:14.468Z,100823.25
2017-06-04T03:12:41.994Z,100822.09
2017-06-04T03:15:09.562Z,100820.08
2017-06-04T03:17:37.155Z,100821.98
2017-06-04T03:20:04.709Z,100820.08
2017-06-04T03:22:32.264Z,100822.16
2017-06-04T03:24:59.783Z,100824.31
2017-06-04T03:27:27.423Z,100824.48
2017-06-04T03:29:55.020Z,100823.69
2017-06-04T03:32:22.585Z,100818.96
2017-06-04T03:34:50.172Z,100832.84
2017-06-04T03:37:17.858Z,100823.04
2017-06-04T03:39:45.395Z,100830.79
2017-06-04T03:42:12.960Z,100827.11
2017-06-04T03:44:40.521Z,100833.28
2017-06-04T03:47:08.050Z,100835.61
2017-06-04T03:49:35.763Z,100834.71
2017-06-04T03:52:03.343Z,100821.60
2017-06-04T03:54:30.904Z,100825.66
2017-06-04T03:56:58.539Z,100824.05
2017-06-04T03:59:26.128Z,100825.51
2017-06-04T04:01:53.644Z,100828.59
2017-06-04T04:04:21.180Z,100828.77
2017-06-04T04:06:48.722Z,100825.09
2017-06-04T04:09:16.243Z,100832.86
2017-06-04T04:11:43.815Z,100831.02
2017-06-04T04:14:11.336Z,100833.87
2017-06-04T04:16:38.907Z,100836.20
2017-06-04T04:19:06.549Z,100838.81
2017-06-04T04:21:34.172Z,100836.92
2017-06-04T04:24:01.727Z,100828.38
2017-06-04T04:26:29.248Z,100827.74
2017-06-04T04:28:56.796Z,100821.59
2017-06-04T04:31:24.315Z,100822.86
2017-06-04T04:33:51.881Z,100824.37
2017-06-04T04:36:19.433Z,100830.75
2017-06-04T04:38:47.047Z,100830.00
2017-06-04T04:41:14.604Z,100836.05
2017-06-04T04:43:42.122Z,100835.38
2017-06-04T04:46:09.667Z,100843.69
2017-06-04T04:48:37.243Z,100841.48
2017-06-04T04:51:04.801Z,100848.30
2017-06-04T04:53:32.321Z,100844.78
2017-06-04T04:55:59.839Z,100854.08
2017-06-04T04:58:27.379Z,100854.28
2017-06-04T05:00:54.912Z,100846.69
2017-06-04T05:03:22.467Z,100856.80
2017-06-04T05:05:49.984Z,100862.70
2017-06-04T05:08:17.533Z,100862.42
2017-06-04T05:10:45.096Z,100857.89
2017-06-04T05:13:12.617Z,100858.41
2017-06-04T05:15:40.188Z,100859.44
2017-06-04T05:18:07.718Z,100867.11
2017-06-04T05:20:35.315Z,100873.47
2017-06-04T05:23:02.841Z,100884.20
2017-06-04T05:25:31.156Z,100885.43
2017-06-04T05:27:58.675Z,100887.77
2017-06-04T05:30:26.251Z,100894.69
2017-06-04T05:32:53.790Z,100892.20
2017-06-04T05:35:21.319Z,100901.80
2017-06-04T05:37:48.883Z,100898.59
2017-06-04T05:40:16.421Z,100897.80
2017-06-04T05:42:44.000Z,100909.70
2017-06-04T05:45:11.639Z,100907.91
2017-06-04T05:47:39.199Z,100905.98
2017-06-04T05:50:06.740Z,100915.27
2017-06-04T05:52:34.305Z,100906.78
2017-06-04T05:55:01.824Z,100909.19
2017-06-04T05:57:29.390Z,100913.64
2017-06-04T05:59:56.918Z,100910.71
2017-06-04T06:02:24.483Z,100914.05
2017-06-04T06:04:52.021Z,100916.88
2017-06-04T06:07:19.624Z,100914.73
2017-06-04T06:09:47.146Z,100914.22
2017-06-04T06:12:14.726Z,100924.72
2017-06-04T06:14:42.238Z,100920.68
2017-06-04T06:17:09.915Z,100929.50
2017-06-04T06:19:37.439Z,100932.97
2017-06-04T06:22:05.002Z,100934.10
2017-06-04T06:24:32.635Z,100928.39
2017-06-04T06:27:00.181Z,100933.59
2017-06-04T06:29:27.815Z,100943.47
2017-06-04T06:31:55.355Z,100949.67
2017-06-04T06:34:22.931Z,100941.91
2017-06-04T06:36:50.451Z,100942.65
2017-06-04T06:39:18.014Z,100945.65
2017-06-04T06:41:45.541Z,100951.41
2017-06-04T06:44:13.143Z,100956.36
2017-06-04T06:46:40.655Z,100958.16
2017-06-04T06:49:08.231Z,100960.62
2017-06-04T06:51:35.748Z,100959.27
2017-06-04T06:54:03.282Z,100961.88
2017-06-04T06:56:31.003Z,100964.69
2017-06-04T06:58:58.564Z,100966.99
2017-06-04T07:01:26.118Z,100977.05
2017-06-04T07:03:53.674Z,100972.87
2017-06-04T07:06:21.308Z,100967.55
2017-06-04T07:08:48.842Z,100969.06
2017-06-04T07:11:16.360Z,100972.94
2017-06-04T07:13:43.930Z,100977.66
2017-06-04T07:16:11.457Z,100980.14
2017-06-04T07:18:39.006Z,100988.07
2017-06-04T07:21:06.552Z,100988.73
2017-06-04T07:23:34.083Z,100984.35
2017-06-04T07:26:01.627Z,100985.22
2017-06-04T07:28:29.162Z,100986.76
2017-06-04T07:30:56.732Z,100993.59
2017-06-04T07:33:24.240Z,100999.14
2017-06-04T07:35:51.803Z,100999.77
2017-06-04T07:38:19.315Z,100998.56
2017-06-04T07:40:46.867Z,101010.84
2017-06-04T07:43:14.414Z,101003.02
2017-06-04T07:45:42.047Z,100998.49
2017-06-04T07:48:09.591Z,101007.15
2017-06-04T07:50:37.103Z,101010.52
2017-06-04T07:53:04.672Z,101012.78
2017-06-04T07:55:32.199Z,101009.61
2017-06-04T07:57:59.732Z,101010.37
2017-06-04T08:00:27.318Z,101010.37
2017-06-04T08:02:54.928Z,101010.22
2017-06-04T08:05:22.496Z,101015.15
2017-06-04T08:07:50.239Z,101014.50
2017-06-04T08:10:17.759Z,101022.97
2017-06-04T08:12:45.304Z,101026.69
2017-06-04T08:15:12.852Z,101032.11
2017-06-04T08:17:40.367Z,101032.22
2017-06-04T08:20:08.096Z,101038.65
2017-06-04T08:22:35.612Z,101043.39
2017-06-04T08:25:03.248Z,101043.66
2017-06-04T08:27:30.778Z,101049.94
2017-06-04T08:29:58.336Z,101054.18
2017-06-04T08:32:25.868Z,101048.95
2017-06-04T08:34:53.636Z,101053.02
2017-06-04T08:37:21.336Z,101042.67
2017-06-04T08:39:48.922Z,101048.45
2017-06-04T08:42:16.461Z,101050.51
2017-06-04T08:44:44.024Z,101052.25
2017-06-04T08:47:11.580Z,101058.11
2017-06-04T08:49:39.188Z,101044.31
2017-06-04T08:52:06.740Z,101043.09
2017-06-04T08:54:34.408Z,101045.84
2017-06-04T08:57:01.918Z,101051.58
2017-06-04T08:59:29.410Z,101050.93
2017-06-04T09:01:57.147Z,101045.34
2017-06-04T09:04:24.667Z,101042.30
2017-06-04T09:06:52.258Z,101051.33
2017-06-04T09:09:19.775Z,101048.90
2017-06-04T09:11:47.335Z,101054.94
2017-06-04T09:14:14.958Z,101052.81
2017-06-04T09:16:42.520Z,101058.88
2017-06-04T09:19:10.219Z,101051.67
2017-06-04T09:21:37.822Z,101060.66
2017-06-04T09:24:05.326Z,101050.05
2017-06-04T09:26:33.727Z,101059.20
2017-06-04T09:29:01.241Z,101066.30
2017-06-04T09:31:28.798Z,101067.28
2017-06-04T09:33:56.327Z,101067.91
2017-06-04T09:36:24.086Z,101060.50
2017-06-04T09:38:51.622Z,101065.56
2017-06-04T09:41:19.171Z,101076.32
2017-06-04T09:43:46.731Z,101072.05
2017-06-04T09:46:14.303Z,101072.67
2017-06-04T09:48:41.867Z,101086.03
2017-06-04T09:51:09.407Z,101084.41
2017-06-04T09:53:37.592Z,101081.16
2017-06-04T09:56:05.128Z,101088.34
2017-06-04T09:58:32.674Z,101097.06
2017-06-04T10:01:00.361Z,101086.34
2017-06-04T10:03:27.906Z,101095.82
2017-06-04T10:05:55.420Z,101089.47
2017-06-04T10:08:22.994Z,101093.41
2017-06-04T10:10:50.511Z,101096.02
2017-06-04T10:13:18.188Z,101090.30
2017-06-04T10:15:45.711Z,101090.28
2017-06-04T10:18:13.244Z,101091.98
2017-06-04T10:20:40.805Z,101095.97
2017-06-04T10:23:08.384Z,101103.97
2017-06-04T10:25:35.955Z,101096.84
2017-06-04T10:28:03.487Z,101097.69
2017-06-04T10:30:31.145Z,101102.56
2017-06-04T10:32:58.667Z,101094.34
2017-06-04T10:35:26.212Z,101107.00
2017-06-04T10:37:53.783Z,101099.18
2017-06-04T10:40:21.327Z,101102.72
2017-06-04T10:42:49.018Z,101097.33
2017-06-04T10:45:16.635Z,101101.48
2017-06-04T10:47:44.170Z,101095.33
2017-06-04T10:50:11.704Z,101088.47
2017-06-04T10:52:39.220Z,101087.70
2017-06-04T10:55:06.783Z,101097.70
2017-06-04T10:57:34.357Z,101089.11
2017-06-04T11:00:01.976Z,101094.81
2017-06-04T11:02:29.527Z,101087.67
2017-06-04T11:04:57.220Z,101097.70
2017-06-04T11:07:24.757Z,101095.48
2017-06-04T11:09:52.415Z,101096.66
2017-06-04T11:12:20.022Z,101088.70
2017-06-04T11:14:47.560Z,101091.91
2017-06-04T11:17:15.137Z,101097.48
2017-06-04T11:19:42.690Z,101087.38
2017-06-04T11:22:10.377Z,101091.80
2017-06-04T11:24:37.896Z,101083.62
2017-06-04T11:27:05.515Z,101083.30
2017-06-04T11:29:33.087Z,101083.53
2017-06-04T11:32:00.687Z,101081.65
2017-06-04T11:34:28.256Z,101075.56
2017-06-04T11:36:55.775Z,101076.44
2017-06-04T11:39:23.518Z,101080.03
2017-06-04T11:41:51.035Z,101081.37
2017-06-04T11:44:18.616Z,101080.42
2017-06-04T11:46:46.185Z,101070.33
2017-06-04T11:49:13.855Z,101071.36
2017-06-04T11:51:41.633Z,101065.66
2017-06-04T11:54:09.171Z,101073.57
2017-06-04T11:56:36.686Z,101074.17
2017-06-04T11:59:04.268Z,101077.91
2017-06-04T12:01:31.820Z,101074.63
2017-06-04T12:03:59.428Z,101068.30
2017-06-04T12:06:27.059Z,101068.50
2017-06-04T12:08:54.559Z,101070.96
2017-06-04T12:11:22.102Z,101069.28
2017-06-04T12:13:49.703Z,101078.53
2017-06-04T12:16:17.295Z,101082.48
2017-06-04T12:18:44.855Z,101081.33
2017-06-04T12:21:12.450Z,101076.62
2017-06-04T12:23:40.055Z,101075.16
2017-06-04T12:26:07.623Z,101079.31
2017-06-04T12:28:35.222Z,101072.62
2017-06-04T12:31:02.764Z,101074.86
2017-06-04T12:33:30.288Z,101075.78
2017-06-04T12:35:57.833Z,101083.24
2017-06-04T12:38:25.365Z,101082.04
2017-06-04T12:40:52.911Z,101084.88
2017-06-04T12:43:20.439Z,101084.95
2017-06-04T12:45:47.994Z,101081.53
2017-06-04T12:48:15.539Z,101088.93
2017-06-04T12:50:43.093Z,101079.75
2017-06-04T12:53:10.691Z,101080.66
2017-06-04T12:55:38.241Z,101087.39
2017-06-04T12:58:05.796Z,101086.48
2017-06-04T13:00:33.314Z,101086.70
2017-06-04T13:03:00.905Z,101093.60
2017-06-04T13:05:28.444Z,101102.20
2017-06-04T13:07:55.979Z,101104.65
2017-06-04T13:10:23.523Z,101095.64
2017-06-04T13:12:51.057Z,101103.09
2017-06-04T13:15:18.632Z,101104.55
2017-06-04T13:17:46.155Z,101110.46
2017-06-04T13:20:13.698Z,101105.41
2017-06-04T13:22:41.267Z,101116.50
2017-06-04T13:25:08.879Z,101103.80
2017-06-04T13:27:36.600Z,101110.69
2017-06-04T13:30:04.159Z,101109.77
2017-06-04T13:32:31.684Z,101115.52
2017-06-04T13:34:59.244Z,101115.31
2017-06-04T13:37:26.755Z,101106.16
2017-06-04T13:39:54.319Z,101100.78
2017-06-04T13:42:21.921Z,101100.47
2017-06-04T13:44:49.455Z,101101.72
2017-06-04T13:47:16.982Z,101106.12
2017-06-04T13:49:44.656Z,101106.17
2017-06-04T13:52:12.203Z,101108.36
2017-06-04T13:54:39.967Z,101107.08
2017-06-04T13:57:07.543Z,101108.44
2017-06-04T13:59:35.133Z,101106.58
2017-06-04T14:02:02.674Z,101120.18
2017-06-04T14:04:30.307Z,101112.03
2017-06-04T14:06:57.845Z,101118.63
2017-06-04T14:09:25.387Z,101115.44
2017-06-04T14:11:52.966Z,101117.27
2017-06-04T14:14:20.601Z,101123.06
2017-06-04T14:16:48.120Z,101118.09
2017-06-04T14:19:15.635Z,101122.48
2017-06-04T14:21:43.534Z,101111.77
2017-06-04T14:24:11.520Z,101108.17
2017-06-04T14:26:39.448Z,101103.80
2017-06-04T14:29:07.387Z,101105.68
2017-06-04T14:31:35.289Z,101103.63
2017-06-04T14:34:03.553Z,101099.01
2017-06-04T14:36:31.309Z,101095.91
2017-06-04T14:38:59.157Z,101091.79
2017-06-04T14:41:26.998Z,101102.45
2017-06-04T14:43:55.180Z,101101.41
2017-06-04T14:46:23.475Z,101103.52
2017-06-04T14:48:51.141Z,101098.96
2017-06-04T14:51:18.716Z,101105.83
2017-06-04T14:53:46.287Z,101099.24
2017-06-04T14:56:13.801Z,101097.08
2017-06-04T14:58:42.077Z,101102.36
2017-06-04T15:01:11.746Z,101098.23
2017-06-04T15:03:40.575Z,101103.61
2017-06-04T15:06:09.366Z,101102.38
2017-06-04T15:08:37.388Z,101104.63
2017-06-04T15:11:05.696Z,101103.09
2017-06-04T15:13:34.795Z,101104.37
2017-06-04T15:16:03.749Z,101105.20
2017-06-04T15:18:32.395Z,101094.66
2017-06-04T15:21:00.484Z,101097.31
2017-06-04T15:23:29.921Z,101098.53
2017-06-04T15:25:58.291Z,101092.31
2017-06-04T15:28:27.158Z,101090.20
2017-06-04T15:30:56.951Z,101085.05
2017-06-04T15:33:25.021Z,101086.27
2017-06-04T15:35:54.044Z,101091.80
2017-06-04T15:38:21.825Z,101097.81
2017-06-04T15:40:49.720Z,101092.88
2017-06-04T15:43:20.533Z,101093.14
2017-06-04T15:45:49.579Z,101088.58
2017-06-04T15:48:17.871Z,101097.30
2017-06-04T15:50:45.975Z,101092.23
2017-06-04T15:53:13.988Z,101100.26
2017-06-04T15:55:42.017Z,101109.78
2017-06-04T15:58:10.129Z,101107.31
2017-06-04T16:00:37.743Z,101103.91
2017-06-04T16:03:05.261Z,101105.21
2017-06-04T16:05:32.848Z,101100.94
2017-06-04T16:08:00.377Z,101093.70
2017-06-04T16:10:28.189Z,101103.12
2017-06-04T16:12:55.868Z,101101.98
2017-06-04T16:15:23.557Z,101103.62
2017-06-04T16:17:51.149Z,101094.02
2017-06-04T16:20:18.867Z,101106.75
2017-06-04T16:22:46.450Z,101105.05
2017-06-04T16:25:14.011Z,101106.38
2017-06-04T16:27:41.742Z,101105.27
2017-06-04T16:30:09.264Z,101117.28
2017-06-04T16:32:36.878Z,101102.11
2017-06-04T16:35:04.503Z,101102.80
2017-06-04T16:37:32.105Z,101094.72
2017-06-04T16:39:59.693Z,101097.13
2017-06-04T16:42:27.360Z,101095.45
2017-06-04T16:44:54.994Z,101087.13
2017-06-04T16:47:22.559Z,101093.79
2017-06-04T16:49:50.123Z,101089.56
2017-06-04T16:52:17.701Z,101086.91
2017-06-04T16:54:45.277Z,101084.92
2017-06-04T16:57:12.870Z,101084.59
2017-06-04T16:59:40.442Z,101091.00
2017-06-04T17:02:07.988Z,101101.02
2017-06-04T17:04:35.543Z,101090.50
2017-06-04T17:07:03.100Z,101099.82
2017-06-04T17:09:30.612Z,101089.09
2017-06-04T17:11:58.181Z,101099.48
2017-06-04T17:14:25.721Z,101096.20
2017-06-04T17:16:53.303Z,101095.63
2017-06-04T17:19:20.879Z,101092.74
2017-06-04T17:21:48.523Z,101079.33
2017-06-04T17:24:16.068Z,101086.46
2017-06-04T17:26:43.628Z,101093.59
2017-06-04T17:29:11.172Z,101100.84
2017-06-04T17:31:38.723Z,101088.78
2017-06-04T17:34:06.323Z,101093.42
2017-06-04T17:36:33.891Z,101088.02
2017-06-04T17:39:01.723Z,101088.89
2017-06-04T17:41:29.240Z,101089.41
2017-06-04T17:43:56.814Z,101086.74
2017-06-04T17:46:24.327Z,101086.08
2017-06-04T17:48:51.857Z,101085.56
2017-06-04T17:51:19.373Z,101086.37
2017-06-04T17:53:46.916Z,101093.72
2017-06-04T17:56:14.431Z,101087.30
2017-06-04T17:58:41.995Z,101095.84
2017-06-04T18:01:09.603Z,101093.80
2017-06-04T18:03:37.494Z,101095.77
2017-06-04T18:06:05.025Z,101089.25
2017-06-04T18:08:32.589Z,101097.08
2017-06-04T18:11:00.112Z,101094.53
2017-06-04T18:13:27.728Z,101095.30
2017-06-04T18:15:55.326Z,101097.05
2017-06-04T18:18:22.955Z,101088.55
2017-06-04T18:20:50.499Z,101086.28
2017-06-04T18:23:18.111Z,101094.13
2017-06-04T18:25:45.645Z,101084.60
2017-06-04T18:28:13.145Z,101087.64
2017-06-04T18:30:40.691Z,101087.39
2017-06-04T18:33:08.262Z,101089.30
2017-06-04T18:35:35.817Z,101092.92
2017-06-04T18:38:03.350Z,101092.90
2017-06-04T18:40:30.979Z,101097.32
2017-06-04T18:42:58.496Z,101099.22
2017-06-04T18:45:26.047Z,101094.27
2017-06-04T18:47:53.529Z,101094.05
2017-06-04T18:50:21.076Z,101090.70
2017-06-04T18:52:48.649Z,101097.84
2017-06-04T18:55:16.171Z,101090.92
2017-06-04T18:57:43.723Z,101096.36
2017-06-04T19:00:11.283Z,101093.51
2017-06-04T19:02:38.813Z,101098.73
2017-06-04T19:05:06.367Z,101093.64
2017-06-04T19:07:33.882Z,101095.79
2017-06-04T19:10:01.452Z,101088.92
2017-06-04T19:12:29.010Z,101094.05
2017-06-04T19:14:56.554Z,101095.63
2017-06-04T19:17:24.099Z,101090.81
2017-06-04T19:19:51.629Z,101091.62
2017-06-04T19:22:19.193Z,101087.41
2017-06-04T19:24:46.823Z,101094.59
2017-06-04T19:27:14.396Z,101094.37
2017-06-04T19:29:41.933Z,101092.44
2017-06-04T19:32:09.515Z,101089.22
2017-06-04T19:34:37.081Z,101088.71
2017-06-04T19:37:04.615Z,101089.43
2017-06-04T19:39:32.150Z,101087.77
2017-06-04T19:41:59.807Z,101089.34
2017-06-04T19:44:27.398Z,101087.85
2017-06-04T19:46:54.926Z,101097.56
2017-06-04T19:49:22.643Z,101105.14
2017-06-04T19:51:50.167Z,101102.02
2017-06-04T19:54:17.710Z,101108.78
2017-06-04T19:56:45.268Z,101104.86
2017-06-04T19:59:12.799Z,101112.28
2017-06-04T20:01:40.347Z,101116.30
2017-06-04T20:04:07.878Z,101119.30
2017-06-04T20:06:35.425Z,101121.16
2017-06-04T20:09:02.956Z,101134.87
2017-06-04T20:11:30.507Z,101134.34
2017-06-04T20:13:58.035Z,101137.95
2017-06-04T20:16:25.620Z,101142.19
2017-06-04T20:18:53.161Z,101147.78
2017-06-04T20:21:20.695Z,101146.52
2017-06-04T20:23:48.350Z,101152.27
2017-06-04T20:26:15.962Z,101147.09
2017-06-04T20:28:43.484Z,101143.71
2017-06-04T20:31:10.999Z,101151.74
2017-06-04T20:33:39.384Z,101164.64
2017-06-04T20:36:06.907Z,101158.95
2017-06-04T20:38:34.484Z,101155.29
2017-06-04T20:41:02.023Z,101155.44
2017-06-04T20:43:29.608Z,101163.74
2017-06-04T20:45:57.172Z,101159.83
2017-06-04T20:48:24.750Z,101161.39
2017-06-04T20:50:52.299Z,101155.87
2017-06-04T20:53:19.864Z,101159.95
2017-06-04T20:55:47.395Z,101163.72
2017-06-04T20:58:15.050Z,101159.77
2017-06-04T21:00:42.575Z,101167.17
2017-06-04T21:03:10.155Z,101166.02
2017-06-04T21:05:37.736Z,101170.45
2017-06-04T21:08:05.287Z,101173.88
2017-06-04T21:10:32.876Z,101164.73
2017-06-04T21:13:00.479Z,101163.27
2017-06-04T21:15:28.112Z,101170.62
2017-06-04T21:17:55.664Z,101176.20
2017-06-04T21:20:23.348Z,101177.70
2017-06-04T21:22:50.906Z,101181.58
2017-06-04T21:25:18.495Z,101177.66
2017-06-04T21:27:46.026Z,101174.55
2017-06-04T21:30:13.552Z,101169.59
2017-06-04T21:32:41.172Z,101166.58
2017-06-04T21:35:08.808Z,101165.06
2017-06-04T21:37:36.352Z,101165.40
2017-06-04T21:40:03.926Z,101164.41
2017-06-04T21:42:31.567Z,101161.50
2017-06-04T21:44:59.084Z,101159.08
2017-06-04T21:47:26.655Z,101151.39
2017-06-04T21:49:54.239Z,101152.36
2017-06-04T21:52:21.782Z,101149.56
2017-06-04T21:54:49.383Z,101155.05
2017-06-04T21:57:16.956Z,101150.73
2017-06-04T21:59:44.499Z,101148.88
2017-06-04T22:02:12.063Z,101148.78
2017-06-04T22:04:39.587Z,101154.80
2017-06-04T22:07:07.142Z,101152.41
2017-06-04T22:09:34.783Z,101151.31
2017-06-04T22:12:02.379Z,101150.17
2017-06-04T22:14:29.943Z,101154.88
2017-06-04T22:16:57.503Z,101155.98
2017-06-04T22:19:25.069Z,101161.08
2017-06-04T22:21:52.585Z,101158.34
2017-06-04T22:24:20.132Z,101159.44
2017-06-04T22:26:47.675Z,101160.33
2017-06-04T22:29:15.249Z,101158.83
2017-06-04T22:31:42.764Z,101156.28
2017-06-04T22:34:10.411Z,101157.88
2017-06-04T22:36:37.982Z,101159.92
2017-06-04T22:39:05.520Z,101161.92
2017-06-04T22:41:33.065Z,101158.09
2017-06-04T22:44:00.636Z,101155.70
2017-06-04T22:46:28.175Z,101160.80
2017-06-04T22:48:55.688Z,101158.16
2017-06-04T22:51:23.226Z,101155.83
2017-06-04T22:53:50.740Z,101152.68
2017-06-04T22:56:18.284Z,101157.97
2017-06-04T22:58:45.824Z,101152.59
2017-06-04T23:01:13.367Z,101161.34
2017-06-04T23:03:40.887Z,101158.88
2017-06-04T23:06:08.468Z,101160.48
2017-06-04T23:08:35.975Z,101158.38
2017-06-04T23:11:03.479Z,101163.64
2017-06-04T23:13:31.033Z,101170.09
2017-06-04T23:15:58.555Z,101171.00
2017-06-04T23:18:26.125Z,101174.91
2017-06-04T23:20:53.603Z,101182.97
2017-06-04T23:23:21.172Z,101180.81
2017-06-04T23:25:48.689Z,101186.14
2017-06-04T23:28:16.199Z,101187.34
2017-06-04T23:30:43.840Z,101189.00
2017-06-04T23:33:11.361Z,101191.77
2017-06-04T23:35:38.932Z,101189.39
2017-06-04T23:38:06.590Z,101193.81
2017-06-04T23:40:34.127Z,101192.06
2017-06-04T23:43:01.655Z,101190.98
2017-06-04T23:45:29.198Z,101191.45
2017-06-04T23:47:56.715Z,101197.57
2017-06-04T23:50:24.248Z,101193.45
2017-06-04T23:52:51.755Z,101197.55
2017-06-04T23:55:19.392Z,101189.72
2017-06-04T23:57:46.951Z,101190.37
